createdAt,value
2023-03-22T00:01:25.676Z,71.20
2023-03-22T00:03:53.213Z,71.20
2023-03-22T00:06:20.741Z,71.30
2023-03-22T00:08:51.326Z,71.20
2023-03-22T00:11:19.914Z,71.30
2023-03-22T00:13:47.390Z,71.30
2023-03-22T00:16:15.484Z,71.40
2023-03-22T00:18:42.697Z,71.80
2023-03-22T00:21:15.565Z,71.50
2023-03-22T00:23:42.962Z,71.40
2023-03-22T00:26:11.680Z,71.30
2023-03-22T00:28:39.003Z,71.10
2023-03-22T00:31:06.957Z,71.10
2023-03-22T00:33:37.017Z,71.50
2023-03-22T00:36:07.756Z,71.30
2023-03-22T00:38:44.888Z,71.50
2023-03-22T00:41:17.962Z,72.10
2023-03-22T00:43:46.219Z,71.70
2023-03-22T00:46:14.881Z,71.70
2023-03-22T00:48:42.729Z,72.10
2023-03-22T00:51:10.888Z,71.80
2023-03-22T00:53:41.908Z,72.10
2023-03-22T00:56:10.075Z,72.10
2023-03-22T00:58:37.130Z,72.00
2023-03-22T01:01:04.262Z,72.30
2023-03-22T01:03:31.487Z,72.40
2023-03-22T01:05:58.400Z,72.00
2023-03-22T01:08:25.632Z,72.10
2023-03-22T01:10:52.821Z,72.30
2023-03-22T01:13:19.817Z,72.50
2023-03-22T01:15:50.154Z,72.50
2023-03-22T01:18:17.371Z,72.00
2023-03-22T01:20:44.371Z,72.40
2023-03-22T01:23:11.293Z,72.30
2023-03-22T01:25:38.320Z,72.70
2023-03-22T01:28:06.988Z,72.50
2023-03-22T01:30:34.641Z,72.00
2023-03-22T01:33:01.689Z,72.20
2023-03-22T01:35:28.818Z,72.20
2023-03-22T01:37:56.076Z,72.10
2023-03-22T01:40:23.039Z,72.10
2023-03-22T01:42:50.099Z,71.90
2023-03-22T01:45:23.148Z,71.90
2023-03-22T01:47:58.316Z,71.90
2023-03-22T01:50:26.096Z,72.40
2023-03-22T01:52:55.653Z,72.20
2023-03-22T01:55:26.284Z,72.30
2023-03-22T01:57:54.226Z,72.60
2023-03-22T02:00:22.710Z,72.20
2023-03-22T02:02:52.895Z,72.60
2023-03-22T02:05:22.531Z,72.50
2023-03-22T02:07:50.784Z,72.50
2023-03-22T02:10:22.274Z,72.70
2023-03-22T02:13:14.089Z,73.00
2023-03-22T02:16:09.272Z,72.70
2023-03-22T02:18:42.159Z,72.80
2023-03-22T02:21:15.148Z,73.10
2023-03-22T02:24:00.153Z,73.10
2023-03-22T02:26:49.795Z,72.70
2023-03-22T02:29:41.952Z,73.50
2023-03-22T02:32:29.737Z,72.70
2023-03-22T02:35:27.374Z,72.60
2023-03-22T02:38:15.775Z,73.20
2023-03-22T02:41:10.996Z,73.50
2023-03-22T02:44:05.885Z,73.00
2023-03-22T02:46:32.784Z,73.20
2023-03-22T02:49:32.253Z,73.40
2023-03-22T02:52:06.751Z,73.10
2023-03-22T02:54:45.344Z,73.60
2023-03-22T02:57:21.043Z,73.70
2023-03-22T02:59:50.365Z,74.00
2023-03-22T03:02:19.750Z,74.00
2023-03-22T03:04:52.060Z,74.10
2023-03-22T03:07:23.085Z,74.00
2023-03-22T03:13:37.284Z,73.40
2023-03-22T03:16:08.082Z,73.70
2023-03-22T03:18:59.173Z,73.70
2023-03-22T03:21:49.080Z,73.20
2023-03-22T03:24:33.793Z,73.00
2023-03-22T03:27:06.684Z,73.70
2023-03-22T03:29:45.059Z,73.10
2023-03-22T03:32:48.049Z,73.10
2023-03-22T03:35:25.505Z,73.00
2023-03-22T03:37:57.772Z,72.80
2023-03-22T03:40:32.620Z,72.60
2023-03-22T03:43:03.821Z,72.30
2023-03-22T03:45:31.099Z,72.50
2023-03-22T03:48:01.686Z,72.60
2023-03-22T03:50:29.827Z,72.00
2023-03-22T03:52:56.974Z,72.00
2023-03-22T03:55:24.659Z,72.20
2023-03-22T03:57:51.725Z,71.90
2023-03-22T04:00:19.817Z,72.00
2023-03-22T04:02:46.791Z,71.90
2023-03-22T04:05:14.348Z,72.00
2023-03-22T04:07:41.763Z,72.00
2023-03-22T04:10:09.275Z,72.00
2023-03-22T04:12:36.404Z,71.90
2023-03-22T04:15:03.522Z,71.80
2023-03-22T04:17:32.270Z,71.50
2023-03-22T04:19:59.244Z,71.50
2023-03-22T04:22:26.803Z,71.50
2023-03-22T04:24:53.848Z,71.60
2023-03-22T04:27:22.738Z,71.70
2023-03-22T04:29:51.229Z,71.70
2023-03-22T04:32:19.197Z,72.20
2023-03-22T04:34:46.649Z,71.80
2023-03-22T04:37:14.906Z,72.10
2023-03-22T04:39:42.609Z,71.90
2023-03-22T04:42:09.976Z,72.10
2023-03-22T04:44:36.817Z,71.90
2023-03-22T04:47:04.046Z,72.20
2023-03-22T04:49:31.541Z,72.70
2023-03-22T04:51:58.516Z,72.40
2023-03-22T04:54:25.807Z,72.90
2023-03-22T04:56:52.973Z,72.90
2023-03-22T04:59:20.651Z,72.80
2023-03-22T05:01:48.560Z,72.80
2023-03-22T05:04:19.697Z,72.90
2023-03-22T05:06:46.760Z,73.40
2023-03-22T05:09:14.569Z,73.40
2023-03-22T05:11:42.073Z,73.70
2023-03-22T05:14:09.769Z,73.90
2023-03-22T05:16:37.157Z,73.90
2023-03-22T05:19:04.187Z,74.10
2023-03-22T05:21:37.055Z,74.40
2023-03-22T05:24:04.378Z,74.20
2023-03-22T05:26:31.336Z,74.50
2023-03-22T05:28:58.741Z,74.70
2023-03-22T05:31:28.577Z,75.20
2023-03-22T05:33:55.787Z,75.00
2023-03-22T05:36:23.876Z,75.30
2023-03-22T05:38:50.831Z,75.40
2023-03-22T05:41:17.649Z,75.20
2023-03-22T05:43:44.616Z,74.90
2023-03-22T05:46:12.342Z,74.20
2023-03-22T05:52:19.913Z,73.60
2023-03-22T05:54:46.841Z,73.20
2023-03-22T05:57:13.863Z,73.20
2023-03-22T05:59:40.988Z,73.10
2023-03-22T06:02:07.809Z,73.20
2023-03-22T06:04:34.776Z,73.00
2023-03-22T06:07:01.624Z,73.10
2023-03-22T06:09:28.509Z,73.40
2023-03-22T06:11:55.360Z,73.50
2023-03-22T06:14:24.013Z,73.50
2023-03-22T06:16:51.240Z,73.80
2023-03-22T06:23:18.298Z,73.80
2023-03-22T06:25:45.388Z,74.00
2023-03-22T06:28:12.214Z,74.00
2023-03-22T06:30:39.652Z,73.80
2023-03-22T06:33:06.774Z,73.80
2023-03-22T06:35:34.630Z,74.00
2023-03-22T06:41:49.600Z,73.50
2023-03-22T06:44:16.997Z,74.20
2023-03-22T06:50:31.330Z,73.90
2023-03-22T06:56:38.752Z,73.70
2023-03-22T06:59:05.682Z,74.10
2023-03-22T07:01:32.606Z,73.90
2023-03-22T07:03:59.735Z,73.90
2023-03-22T07:06:26.731Z,73.90
2023-03-22T07:12:34.854Z,73.90
2023-03-22T07:15:02.573Z,73.70
2023-03-22T07:17:29.662Z,73.90
2023-03-22T07:23:58.283Z,73.10
2023-03-22T07:30:08.976Z,73.60
2023-03-22T07:32:36.447Z,74.10
2023-03-22T07:38:44.300Z,74.20
2023-03-22T07:41:11.200Z,74.50
2023-03-22T07:43:52.393Z,73.90
2023-03-22T07:46:21.125Z,74.30
2023-03-22T07:48:48.094Z,74.10
2023-03-22T07:51:15.420Z,74.10
2023-03-22T07:53:42.380Z,74.10
2023-03-22T07:56:09.818Z,73.80
2023-03-22T07:58:36.996Z,74.00
2023-03-22T08:01:05.735Z,73.80
2023-03-22T08:03:32.918Z,73.80
2023-03-22T08:06:02.860Z,73.20
2023-03-22T08:08:29.913Z,73.40
2023-03-22T08:10:56.810Z,73.00
2023-03-22T08:13:23.950Z,72.70
2023-03-22T08:15:51.219Z,73.00
2023-03-22T08:18:18.178Z,72.70
2023-03-22T08:20:47.817Z,72.60
2023-03-22T08:23:16.434Z,72.50
2023-03-22T08:25:43.572Z,72.90
2023-03-22T08:28:10.827Z,72.80
2023-03-22T08:30:38.936Z,72.70
2023-03-22T08:33:06.657Z,72.20
2023-03-22T08:35:34.253Z,72.20
2023-03-22T08:38:01.321Z,71.90
2023-03-22T08:40:28.353Z,71.90
2023-03-22T08:42:55.524Z,70.70
2023-03-22T08:45:22.440Z,71.90
2023-03-22T08:47:49.392Z,70.60
2023-03-22T08:50:16.391Z,70.20
2023-03-22T08:52:43.224Z,70.10
2023-03-22T08:58:57.144Z,69.90
2023-03-22T09:01:25.745Z,69.20
2023-03-22T09:03:52.768Z,68.90
2023-03-22T09:06:19.663Z,69.00
2023-03-22T09:08:48.247Z,68.40
2023-03-22T09:11:17.637Z,67.90
2023-03-22T09:13:44.860Z,67.20
2023-03-22T09:16:12.153Z,66.80
2023-03-22T09:18:39.973Z,66.30
2023-03-22T09:21:08.637Z,66.00
2023-03-22T09:23:37.887Z,65.70
2023-03-22T09:26:07.444Z,65.60
2023-03-22T09:28:36.311Z,66.00
2023-03-22T09:31:06.791Z,65.70
2023-03-22T09:33:35.632Z,65.30
2023-03-22T09:36:03.149Z,65.30
2023-03-22T09:38:32.587Z,64.90
2023-03-22T09:41:05.675Z,65.30
2023-03-22T09:43:43.782Z,65.10
2023-03-22T09:46:17.104Z,64.80
2023-03-22T09:48:48.408Z,64.90
2023-03-22T09:51:40.526Z,64.90
2023-03-22T09:54:21.788Z,65.50
2023-03-22T09:57:27.587Z,65.30
2023-03-22T10:00:35.684Z,65.30
2023-03-22T10:03:32.766Z,65.40
2023-03-22T10:06:04.325Z,65.30
2023-03-22T10:08:44.598Z,65.20
2023-03-22T10:11:19.440Z,65.40
2023-03-22T10:13:59.773Z,64.70
2023-03-22T10:16:33.193Z,64.70
2023-03-22T10:19:17.681Z,64.90
2023-03-22T10:21:46.744Z,64.90
2023-03-22T10:24:20.384Z,64.70
2023-03-22T10:26:48.973Z,64.60
2023-03-22T10:29:23.569Z,65.00
2023-03-22T10:31:50.783Z,65.10
2023-03-22T10:34:33.848Z,64.30
2023-03-22T10:37:04.249Z,63.70
2023-03-22T10:39:46.523Z,63.70
2023-03-22T10:42:17.953Z,64.00
2023-03-22T10:44:50.650Z,63.50
2023-03-22T10:47:21.521Z,63.40
2023-03-22T10:49:54.749Z,62.80
2023-03-22T10:52:31.276Z,62.40
2023-03-22T10:55:02.994Z,62.50
2023-03-22T10:57:31.205Z,63.00
2023-03-22T10:59:58.415Z,63.20
2023-03-22T11:02:31.217Z,61.80
2023-03-22T11:05:01.200Z,62.00
2023-03-22T11:07:45.449Z,62.00
2023-03-22T11:10:23.615Z,60.70
2023-03-22T11:13:09.788Z,61.20
2023-03-22T11:15:40.868Z,60.80
2023-03-22T11:18:18.173Z,61.00
2023-03-22T11:21:00.650Z,61.00
2023-03-22T11:23:32.284Z,61.50
2023-03-22T11:26:06.300Z,62.10
2023-03-22T11:28:42.100Z,61.50
2023-03-22T11:31:09.487Z,61.60
2023-03-22T11:33:37.712Z,61.30
2023-03-22T11:36:16.976Z,61.10
2023-03-22T11:38:46.356Z,61.00
2023-03-22T11:41:45.319Z,61.10
2023-03-22T11:47:53.703Z,60.80
2023-03-22T11:54:21.925Z,60.30
2023-03-22T11:56:50.398Z,60.30
2023-03-22T11:59:17.527Z,60.10
2023-03-22T12:01:51.708Z,59.60
2023-03-22T12:04:24.876Z,59.50
2023-03-22T12:06:56.501Z,59.00
2023-03-22T12:09:41.551Z,58.90
2023-03-22T12:16:02.271Z,58.50
2023-03-22T12:18:29.613Z,58.20
2023-03-22T12:21:01.267Z,57.30
2023-03-22T12:23:36.704Z,57.20
2023-03-22T12:29:57.135Z,56.50
2023-03-22T12:32:39.191Z,56.10
2023-03-22T12:35:17.591Z,56.00
2023-03-22T12:37:50.807Z,55.30
2023-03-22T12:40:23.514Z,55.80
2023-03-22T12:43:05.628Z,55.20
2023-03-22T12:45:39.751Z,55.70
2023-03-22T12:48:07.042Z,55.80
2023-03-22T12:50:46.299Z,55.40
2023-03-22T12:53:18.529Z,53.70
2023-03-22T12:55:47.592Z,54.10
2023-03-22T12:58:29.809Z,53.90
2023-03-22T13:01:20.086Z,54.70
2023-03-22T13:03:56.275Z,54.00
2023-03-22T13:06:58.060Z,54.20
2023-03-22T13:09:28.644Z,54.60
2023-03-22T13:15:42.115Z,54.30
2023-03-22T13:18:38.032Z,53.90
2023-03-22T13:25:17.489Z,54.00
2023-03-22T13:27:54.153Z,53.60
2023-03-22T13:30:26.446Z,53.70
2023-03-22T13:33:04.225Z,53.60
2023-03-22T13:39:15.930Z,53.10
2023-03-22T13:41:51.865Z,52.70
2023-03-22T13:44:31.727Z,51.90
2023-03-22T13:47:01.552Z,52.00
2023-03-22T13:53:30.402Z,51.70
2023-03-22T14:00:14.952Z,51.80
2023-03-22T14:02:44.040Z,52.20
2023-03-22T14:05:19.137Z,51.90
2023-03-22T14:07:58.224Z,51.50
2023-03-22T14:10:40.247Z,51.30
2023-03-22T14:13:26.365Z,51.20
2023-03-22T14:16:03.192Z,51.70
2023-03-22T14:18:37.379Z,51.80
2023-03-22T14:21:08.362Z,51.50
